sensor_id;sensor_type;location;lat;lon;timestamp;P1;durP1;ratioP1;P2;durP2;ratioP2
13218;SDS011;6674;49.152;11.918;2023-03-14T00:02:13;0.43;;;0.43;;
13218;SDS011;6674;49.152;11.918;2023-03-14T00:04:40;0.40;;;0.40;;
13218;SDS011;6674;49.152;11.918;2023-03-14T00:07:09;0.20;;;0.20;;
13218;SDS011;6674;49.152;11.918;2023-03-14T00:09:36;0.73;;;0.47;;
13218;SDS011;6674;49.152;11.918;2023-03-14T00:12:03;0.60;;;0.50;;
13218;SDS011;6674;49.152;11.918;2023-03-14T00:14:32;0.67;;;0.40;;
13218;SDS011;6674;49.152;11.918;2023-03-14T00:16:59;0.60;;;0.50;;
13218;SDS011;6674;49.152;11.918;2023-03-14T00:19:25;0.77;;;0.30;;
13218;SDS011;6674;49.152;11.918;2023-03-14T00:21:52;0.40;;;0.27;;
13218;SDS011;6674;49.152;11.918;2023-03-14T00:24:20;0.40;;;0.40;;
13218;SDS011;6674;49.152;11.918;2023-03-14T00:26:47;0.30;;;0.30;;
13218;SDS011;6674;49.152;11.918;2023-03-14T00:29:13;0.73;;;0.30;;
13218;SDS011;6674;49.152;11.918;2023-03-14T00:31:40;0.93;;;0.47;;
13218;SDS011;6674;49.152;11.918;2023-03-14T00:34:06;0.40;;;0.33;;
13218;SDS011;6674;49.152;11.918;2023-03-14T00:36:33;0.20;;;0.20;;
13218;SDS011;6674;49.152;11.918;2023-03-14T00:38:59;0.33;;;0.33;;
13218;SDS011;6674;49.152;11.918;2023-03-14T00:41:27;0.43;;;0.40;;
13218;SDS011;6674;49.152;11.918;2023-03-14T00:43:54;0.90;;;0.43;;
13218;SDS011;6674;49.152;11.918;2023-03-14T00:46:21;0.57;;;0.30;;
13218;SDS011;6674;49.152;11.918;2023-03-14T00:48:47;0.53;;;0.23;;
13218;SDS011;6674;49.152;11.918;2023-03-14T00:51:14;0.30;;;0.10;;
13218;SDS011;6674;49.152;11.918;2023-03-14T00:53:42;0.27;;;0.27;;
13218;SDS011;6674;49.152;11.918;2023-03-14T00:56:10;1.37;;;0.43;;
13218;SDS011;6674;49.152;11.918;2023-03-14T00:58:39;1.60;;;0.73;;
13218;SDS011;6674;49.152;11.918;2023-03-14T01:01:07;0.40;;;0.20;;
13218;SDS011;6674;49.152;11.918;2023-03-14T01:03:34;1.40;;;0.40;;
13218;SDS011;6674;49.152;11.918;2023-03-14T01:06:08;1.23;;;0.40;;
13218;SDS011;6674;49.152;11.918;2023-03-14T01:08:37;1.03;;;0.40;;
13218;SDS011;6674;49.152;11.918;2023-03-14T01:11:07;1.37;;;0.60;;
13218;SDS011;6674;49.152;11.918;2023-03-14T01:13:35;1.07;;;0.50;;
13218;SDS011;6674;49.152;11.918;2023-03-14T01:16:04;0.70;;;0.30;;
13218;SDS011;6674;49.152;11.918;2023-03-14T01:18:32;0.40;;;0.30;;
13218;SDS011;6674;49.152;11.918;2023-03-14T01:21:00;0.43;;;0.40;;
13218;SDS011;6674;49.152;11.918;2023-03-14T01:23:26;0.83;;;0.13;;
13218;SDS011;6674;49.152;11.918;2023-03-14T01:25:53;0.57;;;0.20;;
13218;SDS011;6674;49.152;11.918;2023-03-14T01:28:20;0.10;;;0.10;;
13218;SDS011;6674;49.152;11.918;2023-03-14T01:30:48;1.87;;;0.40;;
13218;SDS011;6674;49.152;11.918;2023-03-14T01:33:16;0.37;;;0.00;;
13218;SDS011;6674;49.152;11.918;2023-03-14T01:35:42;0.43;;;0.20;;
13218;SDS011;6674;49.152;11.918;2023-03-14T01:38:09;0.40;;;0.10;;
13218;SDS011;6674;49.152;11.918;2023-03-14T01:40:41;0.10;;;0.10;;
13218;SDS011;6674;49.152;11.918;2023-03-14T01:43:13;0.00;;;0.00;;
13218;SDS011;6674;49.152;11.918;2023-03-14T01:48:52;0.10;;;0.10;;
13218;SDS011;6674;49.152;11.918;2023-03-14T01:51:24;0.50;;;0.20;;
13218;SDS011;6674;49.152;11.918;2023-03-14T01:53:58;0.10;;;0.10;;
13218;SDS011;6674;49.152;11.918;2023-03-14T01:56:29;0.10;;;0.10;;
13218;SDS011;6674;49.152;11.918;2023-03-14T01:58:57;0.60;;;0.10;;
13218;SDS011;6674;49.152;11.918;2023-03-14T02:01:25;0.67;;;0.10;;
13218;SDS011;6674;49.152;11.918;2023-03-14T02:03:55;0.80;;;0.20;;
13218;SDS011;6674;49.152;11.918;2023-03-14T02:06:25;0.23;;;0.00;;
13218;SDS011;6674;49.152;11.918;2023-03-14T02:08:55;0.10;;;0.10;;
13218;SDS011;6674;49.152;11.918;2023-03-14T02:11:21;0.20;;;0.10;;
13218;SDS011;6674;49.152;11.918;2023-03-14T02:13:53;0.30;;;0.10;;
13218;SDS011;6674;49.152;11.918;2023-03-14T02:16:20;0.20;;;0.20;;
13218;SDS011;6674;49.152;11.918;2023-03-14T02:18:47;0.20;;;0.20;;
13218;SDS011;6674;49.152;11.918;2023-03-14T02:21:16;0.10;;;0.10;;
13218;SDS011;6674;49.152;11.918;2023-03-14T02:23:51;0.23;;;0.13;;
13218;SDS011;6674;49.152;11.918;2023-03-14T02:26:25;0.10;;;0.00;;
13218;SDS011;6674;49.152;11.918;2023-03-14T02:28:57;0.10;;;0.10;;
13218;SDS011;6674;49.152;11.918;2023-03-14T02:31:25;0.37;;;0.00;;
13218;SDS011;6674;49.152;11.918;2023-03-14T02:33:52;1.13;;;0.10;;
13218;SDS011;6674;49.152;11.918;2023-03-14T02:36:19;0.10;;;0.10;;
13218;SDS011;6674;49.152;11.918;2023-03-14T02:38:47;0.17;;;0.10;;
13218;SDS011;6674;49.152;11.918;2023-03-14T02:41:18;0.10;;;0.10;;
13218;SDS011;6674;49.152;11.918;2023-03-14T02:43:45;0.73;;;0.07;;
13218;SDS011;6674;49.152;11.918;2023-03-14T02:46:13;1.03;;;0.20;;
13218;SDS011;6674;49.152;11.918;2023-03-14T02:48:43;0.30;;;0.10;;
13218;SDS011;6674;49.152;11.918;2023-03-14T02:51:13;0.50;;;0.10;;
13218;SDS011;6674;49.152;11.918;2023-03-14T02:53:41;0.17;;;0.10;;
13218;SDS011;6674;49.152;11.918;2023-03-14T02:56:08;1.30;;;0.10;;
13218;SDS011;6674;49.152;11.918;2023-03-14T02:58:35;0.97;;;0.20;;
13218;SDS011;6674;49.152;11.918;2023-03-14T03:01:03;0.00;;;0.00;;
13218;SDS011;6674;49.152;11.918;2023-03-14T03:03:33;0.10;;;0.07;;
13218;SDS011;6674;49.152;11.918;2023-03-14T03:06:00;0.20;;;0.20;;
13218;SDS011;6674;49.152;11.918;2023-03-14T03:08:27;0.33;;;0.10;;
13218;SDS011;6674;49.152;11.918;2023-03-14T03:10:56;0.47;;;0.10;;
13218;SDS011;6674;49.152;11.918;2023-03-14T03:13:23;0.30;;;0.00;;
13218;SDS011;6674;49.152;11.918;2023-03-14T03:15:50;0.47;;;0.03;;
13218;SDS011;6674;49.152;11.918;2023-03-14T03:18:17;0.30;;;0.10;;
13218;SDS011;6674;49.152;11.918;2023-03-14T03:20:45;0.20;;;0.10;;
13218;SDS011;6674;49.152;11.918;2023-03-14T03:23:13;0.10;;;0.10;;
13218;SDS011;6674;49.152;11.918;2023-03-14T03:25:39;0.13;;;0.10;;
13218;SDS011;6674;49.152;11.918;2023-03-14T03:28:06;0.07;;;0.07;;
13218;SDS011;6674;49.152;11.918;2023-03-14T03:30:34;0.10;;;0.10;;
13218;SDS011;6674;49.152;11.918;2023-03-14T03:33:04;0.20;;;0.20;;
13218;SDS011;6674;49.152;11.918;2023-03-14T03:35:30;0.27;;;0.10;;
13218;SDS011;6674;49.152;11.918;2023-03-14T03:37:58;0.13;;;0.07;;
13218;SDS011;6674;49.152;11.918;2023-03-14T03:40:25;0.30;;;0.13;;
13218;SDS011;6674;49.152;11.918;2023-03-14T03:42:52;0.10;;;0.10;;
13218;SDS011;6674;49.152;11.918;2023-03-14T03:45:18;0.23;;;0.20;;
13218;SDS011;6674;49.152;11.918;2023-03-14T03:47:45;0.57;;;0.20;;
13218;SDS011;6674;49.152;11.918;2023-03-14T03:50:11;0.20;;;0.20;;
13218;SDS011;6674;49.152;11.918;2023-03-14T03:52:38;0.27;;;0.20;;
13218;SDS011;6674;49.152;11.918;2023-03-14T03:55:06;0.97;;;0.47;;
13218;SDS011;6674;49.152;11.918;2023-03-14T03:57:34;0.80;;;0.73;;
13218;SDS011;6674;49.152;11.918;2023-03-14T04:00:00;1.43;;;0.70;;
13218;SDS011;6674;49.152;11.918;2023-03-14T04:02:27;0.70;;;0.63;;
13218;SDS011;6674;49.152;11.918;2023-03-14T04:04:54;0.50;;;0.50;;
13218;SDS011;6674;49.152;11.918;2023-03-14T04:07:20;0.70;;;0.70;;
13218;SDS011;6674;49.152;11.918;2023-03-14T04:09:47;0.63;;;0.60;;
13218;SDS011;6674;49.152;11.918;2023-03-14T04:12:15;1.00;;;0.70;;
13218;SDS011;6674;49.152;11.918;2023-03-14T04:14:42;1.40;;;0.60;;
13218;SDS011;6674;49.152;11.918;2023-03-14T04:17:08;0.50;;;0.50;;
13218;SDS011;6674;49.152;11.918;2023-03-14T04:19:35;0.50;;;0.50;;
13218;SDS011;6674;49.152;11.918;2023-03-14T04:22:01;3.03;;;0.50;;
13218;SDS011;6674;49.152;11.918;2023-03-14T04:24:28;0.90;;;0.63;;
13218;SDS011;6674;49.152;11.918;2023-03-14T04:26:55;0.37;;;0.37;;
13218;SDS011;6674;49.152;11.918;2023-03-14T04:29:22;0.40;;;0.40;;
13218;SDS011;6674;49.152;11.918;2023-03-14T04:31:49;0.57;;;0.50;;
13218;SDS011;6674;49.152;11.918;2023-03-14T04:34:16;0.40;;;0.40;;
13218;SDS011;6674;49.152;11.918;2023-03-14T04:36:42;0.40;;;0.40;;
13218;SDS011;6674;49.152;11.918;2023-03-14T04:39:09;0.40;;;0.40;;
13218;SDS011;6674;49.152;11.918;2023-03-14T04:41:35;0.67;;;0.40;;
13218;SDS011;6674;49.152;11.918;2023-03-14T04:44:02;0.50;;;0.20;;
13218;SDS011;6674;49.152;11.918;2023-03-14T04:46:30;0.97;;;0.47;;
13218;SDS011;6674;49.152;11.918;2023-03-14T04:48:57;0.20;;;0.20;;
13218;SDS011;6674;49.152;11.918;2023-03-14T04:51:23;0.40;;;0.40;;
13218;SDS011;6674;49.152;11.918;2023-03-14T04:53:52;0.30;;;0.30;;
13218;SDS011;6674;49.152;11.918;2023-03-14T04:56:19;1.27;;;0.23;;
13218;SDS011;6674;49.152;11.918;2023-03-14T04:58:46;0.20;;;0.20;;
13218;SDS011;6674;49.152;11.918;2023-03-14T05:01:13;0.10;;;0.10;;
13218;SDS011;6674;49.152;11.918;2023-03-14T05:03:40;0.30;;;0.30;;
13218;SDS011;6674;49.152;11.918;2023-03-14T05:06:07;0.67;;;0.30;;
13218;SDS011;6674;49.152;11.918;2023-03-14T05:08:34;0.50;;;0.33;;
13218;SDS011;6674;49.152;11.918;2023-03-14T05:11:01;0.40;;;0.40;;
13218;SDS011;6674;49.152;11.918;2023-03-14T05:13:28;0.50;;;0.50;;
13218;SDS011;6674;49.152;11.918;2023-03-14T05:16:01;0.23;;;0.23;;
13218;SDS011;6674;49.152;11.918;2023-03-14T05:18:29;0.33;;;0.33;;
13218;SDS011;6674;49.152;11.918;2023-03-14T05:20:57;0.60;;;0.60;;
13218;SDS011;6674;49.152;11.918;2023-03-14T05:23:23;0.90;;;0.60;;
13218;SDS011;6674;49.152;11.918;2023-03-14T05:25:50;0.63;;;0.63;;
13218;SDS011;6674;49.152;11.918;2023-03-14T05:28:17;0.70;;;0.70;;
13218;SDS011;6674;49.152;11.918;2023-03-14T05:30:44;2.73;;;0.87;;
13218;SDS011;6674;49.152;11.918;2023-03-14T05:33:11;0.80;;;0.80;;
13218;SDS011;6674;49.152;11.918;2023-03-14T05:35:38;0.80;;;0.80;;
13218;SDS011;6674;49.152;11.918;2023-03-14T05:38:05;1.60;;;0.80;;
13218;SDS011;6674;49.152;11.918;2023-03-14T05:40:32;0.73;;;0.73;;
13218;SDS011;6674;49.152;11.918;2023-03-14T05:42:58;0.70;;;0.70;;
13218;SDS011;6674;49.152;11.918;2023-03-14T05:45:25;1.27;;;0.70;;
13218;SDS011;6674;49.152;11.918;2023-03-14T05:47:52;0.43;;;0.43;;
13218;SDS011;6674;49.152;11.918;2023-03-14T05:50:18;0.60;;;0.60;;
13218;SDS011;6674;49.152;11.918;2023-03-14T05:52:45;0.63;;;0.63;;
13218;SDS011;6674;49.152;11.918;2023-03-14T05:55:14;1.20;;;0.60;;
13218;SDS011;6674;49.152;11.918;2023-03-14T05:57:41;0.50;;;0.50;;
13218;SDS011;6674;49.152;11.918;2023-03-14T06:00:08;0.60;;;0.60;;
13218;SDS011;6674;49.152;11.918;2023-03-14T06:02:36;0.63;;;0.50;;
13218;SDS011;6674;49.152;11.918;2023-03-14T06:05:03;1.03;;;0.80;;
13218;SDS011;6674;49.152;11.918;2023-03-14T06:07:31;1.10;;;0.97;;
13218;SDS011;6674;49.152;11.918;2023-03-14T06:09:57;1.00;;;0.90;;
13218;SDS011;6674;49.152;11.918;2023-03-14T06:12:25;0.73;;;0.70;;
13218;SDS011;6674;49.152;11.918;2023-03-14T06:14:52;0.67;;;0.67;;
13218;SDS011;6674;49.152;11.918;2023-03-14T06:17:19;1.07;;;0.90;;
13218;SDS011;6674;49.152;11.918;2023-03-14T06:19:45;1.13;;;0.73;;
13218;SDS011;6674;49.152;11.918;2023-03-14T06:22:12;0.87;;;0.87;;
13218;SDS011;6674;49.152;11.918;2023-03-14T06:24:39;1.37;;;1.00;;
13218;SDS011;6674;49.152;11.918;2023-03-14T06:27:06;2.23;;;0.80;;
13218;SDS011;6674;49.152;11.918;2023-03-14T06:29:34;0.67;;;0.63;;
13218;SDS011;6674;49.152;11.918;2023-03-14T06:32:01;0.70;;;0.70;;
13218;SDS011;6674;49.152;11.918;2023-03-14T06:34:27;1.13;;;0.80;;
13218;SDS011;6674;49.152;11.918;2023-03-14T06:36:54;0.63;;;0.60;;
13218;SDS011;6674;49.152;11.918;2023-03-14T06:39:21;0.67;;;0.50;;
13218;SDS011;6674;49.152;11.918;2023-03-14T06:41:47;0.80;;;0.70;;
13218;SDS011;6674;49.152;11.918;2023-03-14T06:44:14;0.70;;;0.70;;
13218;SDS011;6674;49.152;11.918;2023-03-14T06:46:42;0.97;;;0.73;;
13218;SDS011;6674;49.152;11.918;2023-03-14T06:49:08;0.47;;;0.47;;
13218;SDS011;6674;49.152;11.918;2023-03-14T06:51:35;0.60;;;0.60;;
13218;SDS011;6674;49.152;11.918;2023-03-14T06:54:01;0.90;;;0.80;;
13218;SDS011;6674;49.152;11.918;2023-03-14T06:56:28;0.83;;;0.50;;
13218;SDS011;6674;49.152;11.918;2023-03-14T06:58:55;2.00;;;0.80;;
13218;SDS011;6674;49.152;11.918;2023-03-14T07:01:22;0.70;;;0.70;;
13218;SDS011;6674;49.152;11.918;2023-03-14T07:03:52;0.50;;;0.50;;
13218;SDS011;6674;49.152;11.918;2023-03-14T07:06:18;1.07;;;0.60;;
13218;SDS011;6674;49.152;11.918;2023-03-14T07:08:45;1.73;;;0.67;;
13218;SDS011;6674;49.152;11.918;2023-03-14T07:11:12;0.73;;;0.50;;
13218;SDS011;6674;49.152;11.918;2023-03-14T07:13:38;0.70;;;0.60;;
13218;SDS011;6674;49.152;11.918;2023-03-14T07:16:05;1.03;;;0.60;;
13218;SDS011;6674;49.152;11.918;2023-03-14T07:18:33;0.97;;;0.40;;
13218;SDS011;6674;49.152;11.918;2023-03-14T07:21:01;0.50;;;0.30;;
13218;SDS011;6674;49.152;11.918;2023-03-14T07:23:27;0.60;;;0.33;;
13218;SDS011;6674;49.152;11.918;2023-03-14T07:25:54;0.30;;;0.30;;
13218;SDS011;6674;49.152;11.918;2023-03-14T07:28:21;0.40;;;0.40;;
13218;SDS011;6674;49.152;11.918;2023-03-14T07:30:48;0.40;;;0.40;;
13218;SDS011;6674;49.152;11.918;2023-03-14T07:33:14;1.17;;;0.47;;
13218;SDS011;6674;49.152;11.918;2023-03-14T07:35:43;0.37;;;0.37;;
13218;SDS011;6674;49.152;11.918;2023-03-14T07:38:11;0.80;;;0.40;;
13218;SDS011;6674;49.152;11.918;2023-03-14T07:40:38;0.73;;;0.60;;
13218;SDS011;6674;49.152;11.918;2023-03-14T07:43:04;0.97;;;0.53;;
13218;SDS011;6674;49.152;11.918;2023-03-14T07:45:31;0.53;;;0.30;;
13218;SDS011;6674;49.152;11.918;2023-03-14T07:47:59;0.43;;;0.20;;
13218;SDS011;6674;49.152;11.918;2023-03-14T07:50:27;1.07;;;0.27;;
13218;SDS011;6674;49.152;11.918;2023-03-14T07:52:55;0.33;;;0.30;;
13218;SDS011;6674;49.152;11.918;2023-03-14T07:55:23;0.50;;;0.50;;
13218;SDS011;6674;49.152;11.918;2023-03-14T07:57:50;0.67;;;0.40;;
13218;SDS011;6674;49.152;11.918;2023-03-14T08:00:17;0.87;;;0.30;;
13218;SDS011;6674;49.152;11.918;2023-03-14T08:02:44;0.40;;;0.30;;
13218;SDS011;6674;49.152;11.918;2023-03-14T08:05:11;0.90;;;0.40;;
13218;SDS011;6674;49.152;11.918;2023-03-14T08:07:38;0.20;;;0.20;;
13218;SDS011;6674;49.152;11.918;2023-03-14T08:10:05;1.57;;;0.50;;
13218;SDS011;6674;49.152;11.918;2023-03-14T08:12:34;0.30;;;0.30;;
13218;SDS011;6674;49.152;11.918;2023-03-14T08:15:02;0.30;;;0.30;;
13218;SDS011;6674;49.152;11.918;2023-03-14T08:17:29;0.33;;;0.30;;
13218;SDS011;6674;49.152;11.918;2023-03-14T08:19:56;1.03;;;0.40;;
13218;SDS011;6674;49.152;11.918;2023-03-14T08:22:22;0.50;;;0.50;;
13218;SDS011;6674;49.152;11.918;2023-03-14T08:24:49;0.47;;;0.30;;
13218;SDS011;6674;49.152;11.918;2023-03-14T08:27:16;1.17;;;0.40;;
13218;SDS011;6674;49.152;11.918;2023-03-14T08:29:43;1.50;;;0.50;;
13218;SDS011;6674;49.152;11.918;2023-03-14T08:32:10;0.40;;;0.40;;
13218;SDS011;6674;49.152;11.918;2023-03-14T08:34:37;1.43;;;0.40;;
13218;SDS011;6674;49.152;11.918;2023-03-14T08:37:04;1.67;;;0.47;;
13218;SDS011;6674;49.152;11.918;2023-03-14T08:39:31;0.57;;;0.50;;
13218;SDS011;6674;49.152;11.918;2023-03-14T08:41:58;0.63;;;0.50;;
13218;SDS011;6674;49.152;11.918;2023-03-14T08:44:24;1.33;;;0.40;;
13218;SDS011;6674;49.152;11.918;2023-03-14T08:46:52;1.00;;;0.50;;
13218;SDS011;6674;49.152;11.918;2023-03-14T08:49:19;0.40;;;0.20;;
13218;SDS011;6674;49.152;11.918;2023-03-14T08:51:45;0.30;;;0.20;;
13218;SDS011;6674;49.152;11.918;2023-03-14T08:54:12;0.77;;;0.40;;
13218;SDS011;6674;49.152;11.918;2023-03-14T08:56:39;0.37;;;0.33;;
13218;SDS011;6674;49.152;11.918;2023-03-14T08:59:05;0.63;;;0.50;;
13218;SDS011;6674;49.152;11.918;2023-03-14T09:01:33;0.50;;;0.20;;
13218;SDS011;6674;49.152;11.918;2023-03-14T09:04:01;0.77;;;0.43;;
13218;SDS011;6674;49.152;11.918;2023-03-14T09:06:27;1.57;;;0.50;;
13218;SDS011;6674;49.152;11.918;2023-03-14T09:08:54;0.30;;;0.30;;
13218;SDS011;6674;49.152;11.918;2023-03-14T09:11:20;1.13;;;0.70;;
13218;SDS011;6674;49.152;11.918;2023-03-14T09:13:47;0.93;;;0.30;;
13218;SDS011;6674;49.152;11.918;2023-03-14T09:16:14;0.50;;;0.30;;
13218;SDS011;6674;49.152;11.918;2023-03-14T09:18:41;1.80;;;0.40;;
13218;SDS011;6674;49.152;11.918;2023-03-14T09:21:09;2.10;;;0.30;;
13218;SDS011;6674;49.152;11.918;2023-03-14T09:23:35;1.03;;;0.40;;
13218;SDS011;6674;49.152;11.918;2023-03-14T09:26:02;0.97;;;0.33;;
13218;SDS011;6674;49.152;11.918;2023-03-14T09:28:29;1.13;;;0.40;;
13218;SDS011;6674;49.152;11.918;2023-03-14T09:30:56;0.83;;;0.30;;
13218;SDS011;6674;49.152;11.918;2023-03-14T09:33:22;0.70;;;0.37;;
13218;SDS011;6674;49.152;11.918;2023-03-14T09:35:49;0.73;;;0.40;;
13218;SDS011;6674;49.152;11.918;2023-03-14T09:38:17;1.27;;;0.50;;
13218;SDS011;6674;49.152;11.918;2023-03-14T09:40:45;0.90;;;0.30;;
13218;SDS011;6674;49.152;11.918;2023-03-14T09:43:13;0.70;;;0.40;;
13218;SDS011;6674;49.152;11.918;2023-03-14T09:45:41;0.57;;;0.20;;
13218;SDS011;6674;49.152;11.918;2023-03-14T09:48:11;1.13;;;0.60;;
13218;SDS011;6674;49.152;11.918;2023-03-14T09:50:42;0.87;;;0.60;;
13218;SDS011;6674;49.152;11.918;2023-03-14T09:53:11;1.37;;;0.47;;
13218;SDS011;6674;49.152;11.918;2023-03-14T09:55:42;1.30;;;0.30;;
13218;SDS011;6674;49.152;11.918;2023-03-14T09:58:13;0.43;;;0.30;;
13218;SDS011;6674;49.152;11.918;2023-03-14T10:00:42;1.30;;;0.53;;
13218;SDS011;6674;49.152;11.918;2023-03-14T10:03:18;0.60;;;0.30;;
13218;SDS011;6674;49.152;11.918;2023-03-14T10:05:48;0.77;;;0.40;;
13218;SDS011;6674;49.152;11.918;2023-03-14T10:08:14;0.40;;;0.30;;
13218;SDS011;6674;49.152;11.918;2023-03-14T10:10:42;0.47;;;0.27;;
13218;SDS011;6674;49.152;11.918;2023-03-14T10:13:12;0.60;;;0.40;;
13218;SDS011;6674;49.152;11.918;2023-03-14T10:15:41;0.80;;;0.53;;
13218;SDS011;6674;49.152;11.918;2023-03-14T10:18:13;1.83;;;0.60;;
13218;SDS011;6674;49.152;11.918;2023-03-14T10:20:40;0.43;;;0.43;;
13218;SDS011;6674;49.152;11.918;2023-03-14T10:23:18;0.50;;;0.37;;
13218;SDS011;6674;49.152;11.918;2023-03-14T10:26:00;0.30;;;0.27;;
13218;SDS011;6674;49.152;11.918;2023-03-14T10:28:32;2.20;;;0.40;;
13218;SDS011;6674;49.152;11.918;2023-03-14T10:31:00;0.37;;;0.30;;
13218;SDS011;6674;49.152;11.918;2023-03-14T10:33:27;1.03;;;0.40;;
13218;SDS011;6674;49.152;11.918;2023-03-14T10:35:56;2.83;;;0.27;;
13218;SDS011;6674;49.152;11.918;2023-03-14T10:38:25;1.23;;;0.40;;
13218;SDS011;6674;49.152;11.918;2023-03-14T10:40:53;0.90;;;0.30;;
13218;SDS011;6674;49.152;11.918;2023-03-14T10:43:23;1.43;;;0.40;;
13218;SDS011;6674;49.152;11.918;2023-03-14T10:45:54;1.30;;;0.30;;
13218;SDS011;6674;49.152;11.918;2023-03-14T10:48:24;1.60;;;0.37;;
13218;SDS011;6674;49.152;11.918;2023-03-14T10:50:57;0.87;;;0.23;;
13218;SDS011;6674;49.152;11.918;2023-03-14T10:53:29;1.37;;;0.30;;
13218;SDS011;6674;49.152;11.918;2023-03-14T10:55:59;0.67;;;0.40;;
13218;SDS011;6674;49.152;11.918;2023-03-14T10:58:33;0.90;;;0.30;;
13218;SDS011;6674;49.152;11.918;2023-03-14T11:01:08;0.63;;;0.40;;
13218;SDS011;6674;49.152;11.918;2023-03-14T11:03:47;0.67;;;0.43;;
13218;SDS011;6674;49.152;11.918;2023-03-14T11:06:19;0.60;;;0.40;;
13218;SDS011;6674;49.152;11.918;2023-03-14T11:08:51;0.53;;;0.30;;
13218;SDS011;6674;49.152;11.918;2023-03-14T11:11:23;0.93;;;0.40;;
13218;SDS011;6674;49.152;11.918;2023-03-14T11:13:57;0.73;;;0.40;;
13218;SDS011;6674;49.152;11.918;2023-03-14T11:16:34;0.83;;;0.40;;
13218;SDS011;6674;49.152;11.918;2023-03-14T11:19:29;0.73;;;0.40;;
13218;SDS011;6674;49.152;11.918;2023-03-14T11:22:05;0.40;;;0.30;;
13218;SDS011;6674;49.152;11.918;2023-03-14T11:24:47;0.40;;;0.40;;
13218;SDS011;6674;49.152;11.918;2023-03-14T11:27:21;0.47;;;0.47;;
13218;SDS011;6674;49.152;11.918;2023-03-14T11:29:55;0.83;;;0.43;;
13218;SDS011;6674;49.152;11.918;2023-03-14T11:32:27;0.70;;;0.30;;
13218;SDS011;6674;49.152;11.918;2023-03-14T11:35:07;0.67;;;0.27;;
13218;SDS011;6674;49.152;11.918;2023-03-14T11:37:43;0.40;;;0.20;;
13218;SDS011;6674;49.152;11.918;2023-03-14T11:40:14;0.50;;;0.20;;
13218;SDS011;6674;49.152;11.918;2023-03-14T11:42:44;0.17;;;0.13;;
13218;SDS011;6674;49.152;11.918;2023-03-14T11:45:16;1.27;;;0.57;;
13218;SDS011;6674;49.152;11.918;2023-03-14T11:47:46;0.90;;;0.40;;
13218;SDS011;6674;49.152;11.918;2023-03-14T11:50:17;0.50;;;0.23;;
13218;SDS011;6674;49.152;11.918;2023-03-14T11:52:47;0.40;;;0.27;;
13218;SDS011;6674;49.152;11.918;2023-03-14T11:55:19;1.33;;;0.67;;
13218;SDS011;6674;49.152;11.918;2023-03-14T11:57:51;0.37;;;0.30;;
13218;SDS011;6674;49.152;11.918;2023-03-14T12:00:24;0.80;;;0.40;;
13218;SDS011;6674;49.152;11.918;2023-03-14T12:02:52;0.20;;;0.20;;
13218;SDS011;6674;49.152;11.918;2023-03-14T12:05:28;0.30;;;0.30;;
13218;SDS011;6674;49.152;11.918;2023-03-14T12:10:59;0.30;;;0.30;;
13218;SDS011;6674;49.152;11.918;2023-03-14T12:13:29;1.47;;;0.30;;
13218;SDS011;6674;49.152;11.918;2023-03-14T12:16:04;1.67;;;0.70;;
13218;SDS011;6674;49.152;11.918;2023-03-14T12:18:32;0.87;;;0.30;;
13218;SDS011;6674;49.152;11.918;2023-03-14T12:21:03;0.47;;;0.30;;
13218;SDS011;6674;49.152;11.918;2023-03-14T12:23:34;1.10;;;0.40;;
13218;SDS011;6674;49.152;11.918;2023-03-14T12:26:14;1.33;;;0.70;;
13218;SDS011;6674;49.152;11.918;2023-03-14T12:28:43;0.33;;;0.30;;
13218;SDS011;6674;49.152;11.918;2023-03-14T12:34:26;0.77;;;0.33;;
13218;SDS011;6674;49.152;11.918;2023-03-14T12:37:09;1.27;;;0.40;;
13218;SDS011;6674;49.152;11.918;2023-03-14T12:39:43;0.83;;;0.33;;
13218;SDS011;6674;49.152;11.918;2023-03-14T12:42:17;0.70;;;0.30;;
13218;SDS011;6674;49.152;11.918;2023-03-14T12:44:50;0.83;;;0.20;;
13218;SDS011;6674;49.152;11.918;2023-03-14T12:50:28;1.13;;;0.30;;
13218;SDS011;6674;49.152;11.918;2023-03-14T12:53:12;0.40;;;0.40;;
13218;SDS011;6674;49.152;11.918;2023-03-14T12:55:58;1.77;;;0.33;;
13218;SDS011;6674;49.152;11.918;2023-03-14T12:58:34;0.53;;;0.37;;
13218;SDS011;6674;49.152;11.918;2023-03-14T13:01:05;1.27;;;0.40;;
13218;SDS011;6674;49.152;11.918;2023-03-14T13:03:43;0.30;;;0.30;;
13218;SDS011;6674;49.152;11.918;2023-03-14T13:06:11;0.93;;;0.40;;
13218;SDS011;6674;49.152;11.918;2023-03-14T13:08:39;0.30;;;0.20;;
13218;SDS011;6674;49.152;11.918;2023-03-14T13:11:08;0.30;;;0.30;;
13218;SDS011;6674;49.152;11.918;2023-03-14T13:13:41;1.07;;;0.30;;
13218;SDS011;6674;49.152;11.918;2023-03-14T13:16:12;0.47;;;0.30;;
13218;SDS011;6674;49.152;11.918;2023-03-14T13:18:43;1.17;;;0.20;;
13218;SDS011;6674;49.152;11.918;2023-03-14T13:21:12;0.23;;;0.23;;
13218;SDS011;6674;49.152;11.918;2023-03-14T13:23:42;0.40;;;0.30;;
13218;SDS011;6674;49.152;11.918;2023-03-14T13:26:20;0.33;;;0.33;;
13218;SDS011;6674;49.152;11.918;2023-03-14T13:28:49;1.47;;;0.30;;
13218;SDS011;6674;49.152;11.918;2023-03-14T13:31:19;1.03;;;0.47;;
13218;SDS011;6674;49.152;11.918;2023-03-14T13:33:57;0.90;;;0.37;;
13218;SDS011;6674;49.152;11.918;2023-03-14T13:36:25;0.73;;;0.30;;
13218;SDS011;6674;49.152;11.918;2023-03-14T13:38:55;1.70;;;0.40;;
13218;SDS011;6674;49.152;11.918;2023-03-14T13:41:22;0.70;;;0.30;;
13218;SDS011;6674;49.152;11.918;2023-03-14T13:43:50;0.80;;;0.60;;
13218;SDS011;6674;49.152;11.918;2023-03-14T13:46:17;0.53;;;0.27;;
13218;SDS011;6674;49.152;11.918;2023-03-14T13:48:47;0.63;;;0.20;;
13218;SDS011;6674;49.152;11.918;2023-03-14T13:51:18;0.40;;;0.40;;
13218;SDS011;6674;49.152;11.918;2023-03-14T13:53:46;0.73;;;0.50;;
13218;SDS011;6674;49.152;11.918;2023-03-14T13:56:15;1.13;;;0.50;;
13218;SDS011;6674;49.152;11.918;2023-03-14T13:58:42;0.97;;;0.47;;
13218;SDS011;6674;49.152;11.918;2023-03-14T14:01:13;0.37;;;0.20;;
13218;SDS011;6674;49.152;11.918;2023-03-14T14:03:42;0.13;;;0.10;;
13218;SDS011;6674;49.152;11.918;2023-03-14T14:06:11;0.30;;;0.27;;
13218;SDS011;6674;49.152;11.918;2023-03-14T14:08:49;0.23;;;0.23;;
13218;SDS011;6674;49.152;11.918;2023-03-14T14:11:18;0.77;;;0.30;;
13218;SDS011;6674;49.152;11.918;2023-03-14T14:13:48;0.57;;;0.43;;
13218;SDS011;6674;49.152;11.918;2023-03-14T14:16:15;1.30;;;0.43;;
13218;SDS011;6674;49.152;11.918;2023-03-14T14:18:46;0.37;;;0.20;;
13218;SDS011;6674;49.152;11.918;2023-03-14T14:21:13;0.47;;;0.40;;
13218;SDS011;6674;49.152;11.918;2023-03-14T14:23:41;0.80;;;0.30;;
13218;SDS011;6674;49.152;11.918;2023-03-14T14:26:13;0.23;;;0.23;;
13218;SDS011;6674;49.152;11.918;2023-03-14T14:28:42;0.80;;;0.30;;
13218;SDS011;6674;49.152;11.918;2023-03-14T14:31:18;0.80;;;0.20;;
13218;SDS011;6674;49.152;11.918;2023-03-14T14:33:53;0.67;;;0.10;;
13218;SDS011;6674;49.152;11.918;2023-03-14T14:36:22;0.13;;;0.10;;
13218;SDS011;6674;49.152;11.918;2023-03-14T14:38:52;0.87;;;0.10;;
13218;SDS011;6674;49.152;11.918;2023-03-14T14:41:20;1.47;;;0.50;;
13218;SDS011;6674;49.152;11.918;2023-03-14T14:43:47;0.00;;;0.00;;
13218;SDS011;6674;49.152;11.918;2023-03-14T14:46:16;0.63;;;0.10;;
13218;SDS011;6674;49.152;11.918;2023-03-14T14:48:44;0.37;;;0.13;;
13218;SDS011;6674;49.152;11.918;2023-03-14T14:51:21;1.10;;;0.20;;
13218;SDS011;6674;49.152;11.918;2023-03-14T14:53:49;0.10;;;0.10;;
13218;SDS011;6674;49.152;11.918;2023-03-14T14:56:27;0.20;;;0.10;;
13218;SDS011;6674;49.152;11.918;2023-03-14T14:58:55;0.50;;;0.20;;
13218;SDS011;6674;49.152;11.918;2023-03-14T15:01:24;0.20;;;0.20;;
13218;SDS011;6674;49.152;11.918;2023-03-14T15:03:55;1.17;;;0.27;;
13218;SDS011;6674;49.152;11.918;2023-03-14T15:06:22;0.27;;;0.20;;
13218;SDS011;6674;49.152;11.918;2023-03-14T15:08:52;0.30;;;0.27;;
13218;SDS011;6674;49.152;11.918;2023-03-14T15:11:20;0.97;;;0.30;;